All
Wiluna Airport (Wiluna, Western Australia) WUN Weather
|
Wiluna, Western Australia (WUN / YWLU)
Clear skies
Light winds |
|
57 °F |
WUN Terminal Area Forecast
| Date | Time (AWST) | Flight Rules | Wind Dir. | Speed | Type | Height AGL (ft) | Visibility | Remarks | ||||||
|---|---|---|---|---|---|---|---|---|---|---|---|---|---|---|
Recent WUN METAR history
| Date | Time (AWST) | Flight Rules | Wind Dir. | Speed | Type | Height AGL (ft) | Visibility | Temp (°C) | Temp (°F) | Dew Point (°C) | Dew Point (°F) | Rel. Humid. | Pressure | Density Altitude | Remarks |
|---|---|---|---|---|---|---|---|---|---|---|---|---|---|---|---|
| 04-May | 10:00PM | VFR | 130° | 8 kt | 10000 meters | 14° | 57° | 4° | 39° | 51% | 1024 mb | 1,448 ft | |||
| 04-May | 09:00PM | VFR | 120° | 8 kt | 10000 meters | 15° | 59° | 3° | 37° | 44% | 1024 mb | 1,568 ft | |||
| 04-May | 08:00PM | VFR | 130° | 7 kt | 10000 meters | 16° | 60° | 3° | 37° | 42% | 1024 mb | 1,688 ft | |||
| 04-May | 07:00PM | VFR | 130° | 7 kt | 10000 meters | 17° | 62° | 3° | 37° | 39% | 1023 mb | 1,837 ft | |||
| 04-May | 06:00PM | VFR | 130° | 8 kt | 10000 meters | 19° | 66° | 3° | 37° | 34% | 1023 mb | 2,077 ft | |||
| 04-May | 05:00PM | VFR | 120° | 10 kt | 10000 meters | 21° | 69° | 3° | 37° | 30% | 1022 mb | 2,347 ft | |||
| 04-May | 04:00PM | VFR | 130° | 12 kt | 10000 meters | 22° | 71° | 2° | 35° | 27% | 1022 mb | 2,467 ft | |||
| 04-May | 03:00PM | VFR | 100° | 9 kt | 10000 meters | 21° | 69° | 2° | 35° | 28% | 1022 mb | 2,347 ft | |||
| 04-May | 02:00PM | VFR | 110° | 10 kt | 10000 meters | 21° | 69° | 2° | 35° | 28% | 1022 mb | 2,347 ft | |||
| 04-May | 01:00PM | VFR | 150° | 11 kt | 10000 meters | 20° | 68° | 3° | 37° | 32% | 1023 mb | 2,197 ft | |||
| 04-May | 12:00PM | VFR | 110° | 9 kt | 10000 meters | 20° | 68° | 4° | 39° | 35% | 1024 mb | 2,168 ft | |||
| 04-May | 11:00AM | VFR | 110° | 8 kt | 10000 meters | 18° | 64° | 4° | 39° | 39% | 1025 mb | 1,898 ft | |||
| 04-May | 10:00AM | VFR | 90° | 9 kt | 10000 meters | 17° | 62° | 5° | 41° | 45% | 1026 mb | 1,749 ft | |||
| 04-May | 09:00AM | VFR | 100° | 10 kt | 10000 meters | 16° | 60° | 5° | 41° | 48% | 1026 mb | 1,629 ft | |||
| 04-May | 08:00AM | VFR | 130° | 6 kt | 10000 meters | 11° | 51° | 4° | 39° | 62% | 1026 mb | 1,029 ft | |||
| 04-May | 07:00AM | VFR | 150° | 4 kt | 10000 meters | 8° | 46° | 3° | 37° | 71% | 1025 mb | 698 ft | |||
| 04-May | 06:00AM | VFR | 150° | 4 kt | 10000 meters | 8° | 46° | 3° | 37° | 71% | 1024 mb | 728 ft | |||
| 04-May | 05:00AM | VFR | 150° | 5 kt | 10000 meters | 8° | 46° | 2° | 35° | 66% | 1024 mb | 728 ft | |||
| 04-May | 04:00AM | VFR | 150° | 5 kt | 10000 meters | 8° | 46° | 2° | 35° | 66% | 1024 mb | 728 ft | |||
| 04-May | 03:00AM | VFR | 130° | 5 kt | 10000 meters | 10° | 50° | 2° | 35° | 57% | 1024 mb | 968 ft | |||
| 04-May | 02:00AM | VFR | 130° | 4 kt | 10000 meters | 10° | 50° | 2° | 35° | 57% | 1024 mb | 968 ft | |||
| 04-May | 01:00AM | VFR | 130° | 5 kt | 10000 meters | 10° | 50° | 2° | 35° | 57% | 1023 mb | 997 ft | |||
| 04-May | 12:00AM | VFR | 130° | 6 kt | 10000 meters | 11° | 51° | 2° | 35° | 54% | 1023 mb | 1,117 ft | |||
| 03-May | 11:00PM | VFR | 130° | 6 kt | 10000 meters | 12° | 53° | 2° | 35° | 50% | 1023 mb | 1,237 ft |
Login
| Your browser is unsupported. upgrade your browser |
